createdAt,value
2022-12-25T00:01:16.131Z,81.44
2022-12-25T00:04:03.120Z,81.34
2022-12-25T00:06:50.408Z,81.08
2022-12-25T00:09:36.976Z,81.11
2022-12-25T00:12:24.103Z,81.21
2022-12-25T00:15:11.167Z,81.26
2022-12-25T00:17:57.968Z,81.29
2022-12-25T00:20:44.908Z,81.51
2022-12-25T00:23:32.016Z,81.73
2022-12-25T00:26:19.041Z,81.57
2022-12-25T00:29:05.604Z,81.53
2022-12-25T00:31:52.262Z,81.47
2022-12-25T00:34:39.005Z,81.65
2022-12-25T00:37:25.610Z,81.86
2022-12-25T00:40:12.866Z,81.87
2022-12-25T00:42:59.663Z,81.79
2022-12-25T00:45:56.222Z,81.45
2022-12-25T00:48:45.204Z,81.89
2022-12-25T00:51:32.175Z,81.67
2022-12-25T00:54:19.789Z,81.71
2022-12-25T00:57:06.493Z,81.63
2022-12-25T00:59:52.972Z,81.30
2022-12-25T01:02:39.938Z,81.31
2022-12-25T01:05:26.852Z,81.24
2022-12-25T01:08:13.842Z,80.82
2022-12-25T01:11:03.351Z,80.53
2022-12-25T01:13:51.025Z,80.53
2022-12-25T01:16:38.107Z,80.66
2022-12-25T01:19:25.053Z,80.45
2022-12-25T01:22:11.818Z,80.19
2022-12-25T01:24:59.750Z,80.06
2022-12-25T01:27:46.362Z,80.61
2022-12-25T01:30:33.091Z,80.58
2022-12-25T01:33:20.075Z,80.61
2022-12-25T01:36:18.979Z,80.88
2022-12-25T01:39:05.826Z,81.22
2022-12-25T01:41:52.818Z,81.56
2022-12-25T01:44:39.479Z,81.87
2022-12-25T01:47:26.507Z,81.71
2022-12-25T01:50:13.315Z,81.68
2022-12-25T01:53:00.415Z,81.72
2022-12-25T01:55:50.814Z,81.37
2022-12-25T01:58:37.608Z,81.63
2022-12-25T02:01:56.933Z,81.35
2022-12-25T02:04:56.628Z,81.58
2022-12-25T02:07:43.879Z,81.77
2022-12-25T02:10:30.918Z,81.76
2022-12-25T02:13:19.500Z,81.68
2022-12-25T02:16:21.121Z,81.04
2022-12-25T02:19:26.285Z,80.85
2022-12-25T02:22:50.453Z,80.99
2022-12-25T02:25:55.794Z,81.11
2022-12-25T02:28:46.290Z,81.11
2022-12-25T02:31:43.372Z,81.26
2022-12-25T02:35:02.337Z,81.59
2022-12-25T02:38:06.085Z,81.62
2022-12-25T02:40:58.541Z,81.87
2022-12-25T02:44:04.999Z,81.91
2022-12-25T02:47:11.785Z,82.05
2022-12-25T02:50:18.356Z,81.87
2022-12-25T02:53:25.851Z,82.14
2022-12-25T02:56:32.246Z,82.39
2022-12-25T02:59:44.168Z,82.40
2022-12-25T03:02:51.514Z,82.25
2022-12-25T03:05:59.371Z,82.18
2022-12-25T03:08:55.349Z,82.32
2022-12-25T03:11:44.019Z,82.28
2022-12-25T03:14:50.252Z,82.03
2022-12-25T03:17:37.291Z,82.07
2022-12-25T03:20:42.657Z,81.99
2022-12-25T03:23:53.435Z,82.32
2022-12-25T03:26:55.332Z,82.38
2022-12-25T03:30:00.691Z,82.35
2022-12-25T03:33:36.680Z,82.43
2022-12-25T03:36:28.641Z,82.44
2022-12-25T03:40:20.632Z,82.30
2022-12-25T03:43:48.823Z,82.29
2022-12-25T03:46:59.752Z,82.11
2022-12-25T03:50:35.388Z,82.03
2022-12-25T03:53:48.086Z,82.20
2022-12-25T03:56:55.598Z,82.28
2022-12-25T04:00:01.289Z,82.21
2022-12-25T04:03:06.801Z,82.28
2022-12-25T04:06:12.463Z,82.18
2022-12-25T04:09:17.861Z,82.10
2022-12-25T04:12:23.990Z,82.05
2022-12-25T04:15:29.402Z,82.15
2022-12-25T04:18:35.076Z,82.03
2022-12-25T04:21:40.876Z,81.99
2022-12-25T04:24:46.576Z,81.94
2022-12-25T04:27:51.906Z,81.83
2022-12-25T04:30:57.128Z,81.73
2022-12-25T04:34:03.494Z,81.81
2022-12-25T04:36:50.632Z,81.81
2022-12-25T04:39:37.467Z,81.65
2022-12-25T04:42:24.203Z,81.75
2022-12-25T04:45:12.098Z,81.71
2022-12-25T04:48:00.351Z,81.74
2022-12-25T04:50:47.375Z,81.70
2022-12-25T04:53:34.478Z,81.64
2022-12-25T04:56:21.216Z,81.73
2022-12-25T04:59:08.091Z,81.66
2022-12-25T05:01:54.926Z,81.67
2022-12-25T05:04:41.733Z,81.59
2022-12-25T05:07:28.454Z,81.59
2022-12-25T05:10:15.593Z,81.53
2022-12-25T05:13:02.112Z,81.44
2022-12-25T05:15:49.216Z,81.51
2022-12-25T05:18:36.041Z,81.61
2022-12-25T05:21:23.319Z,81.60
2022-12-25T05:24:09.743Z,81.59
2022-12-25T05:26:56.629Z,81.55
2022-12-25T05:29:43.491Z,81.29
2022-12-25T05:32:31.304Z,81.36
2022-12-25T05:35:17.746Z,81.38
2022-12-25T05:38:06.723Z,81.16
2022-12-25T05:40:53.712Z,81.20
2022-12-25T05:43:40.222Z,81.02
2022-12-25T05:46:27.051Z,81.09
2022-12-25T05:49:14.096Z,81.23
2022-12-25T05:52:01.334Z,81.06
2022-12-25T05:54:48.047Z,80.85
2022-12-25T05:57:34.692Z,80.84
2022-12-25T06:00:21.445Z,80.89
2022-12-25T06:03:08.204Z,80.86
2022-12-25T06:05:55.251Z,80.72
2022-12-25T06:08:41.960Z,80.71
2022-12-25T06:11:28.743Z,80.64
2022-12-25T06:14:16.202Z,80.24
2022-12-25T06:17:03.353Z,79.66
2022-12-25T06:19:50.080Z,79.90
2022-12-25T06:22:36.716Z,79.87
2022-12-25T06:25:24.061Z,79.67
2022-12-25T06:28:10.606Z,79.61
2022-12-25T06:30:57.411Z,79.73
2022-12-25T06:33:45.142Z,79.59
2022-12-25T06:36:31.803Z,79.67
2022-12-25T06:39:19.140Z,80.05
2022-12-25T06:42:06.192Z,80.05
2022-12-25T06:44:53.500Z,80.19
2022-12-25T06:47:40.343Z,79.82
2022-12-25T06:50:27.247Z,79.70
2022-12-25T06:53:14.042Z,79.53
2022-12-25T06:56:05.457Z,79.57
2022-12-25T06:58:55.412Z,79.75
2022-12-25T07:01:50.556Z,79.55
2022-12-25T07:04:40.645Z,79.42
2022-12-25T07:07:27.199Z,79.36
2022-12-25T07:10:14.059Z,79.36
2022-12-25T07:13:00.775Z,79.20
2022-12-25T07:15:47.363Z,79.06
2022-12-25T07:18:35.170Z,79.05
2022-12-25T07:21:22.162Z,79.07
2022-12-25T07:24:09.001Z,79.07
2022-12-25T07:26:55.825Z,79.53
2022-12-25T07:29:42.603Z,79.69
2022-12-25T07:32:32.781Z,79.60
2022-12-25T07:35:19.392Z,79.61
2022-12-25T07:38:06.167Z,79.52
2022-12-25T07:40:53.810Z,79.56
2022-12-25T07:43:40.928Z,79.39
2022-12-25T07:46:28.497Z,79.37
2022-12-25T07:49:15.874Z,79.58
2022-12-25T07:52:02.478Z,79.47
2022-12-25T07:54:49.350Z,79.49
2022-12-25T07:57:36.661Z,79.52
2022-12-25T08:00:29.569Z,79.65
2022-12-25T08:03:17.089Z,79.34
2022-12-25T08:06:06.919Z,79.60
2022-12-25T08:08:53.854Z,79.72
2022-12-25T08:11:46.331Z,79.87
2022-12-25T08:14:33.389Z,79.39
2022-12-25T08:17:20.200Z,79.25
2022-12-25T08:20:07.355Z,79.07
2022-12-25T08:22:54.279Z,78.90
2022-12-25T08:25:41.044Z,78.53
2022-12-25T08:28:28.863Z,78.83
2022-12-25T08:31:22.096Z,78.78
2022-12-25T08:34:09.959Z,78.54
2022-12-25T08:36:56.673Z,78.21
2022-12-25T08:39:43.340Z,78.76
2022-12-25T08:42:30.182Z,79.57
2022-12-25T08:45:17.107Z,79.24
2022-12-25T08:48:03.737Z,77.80
2022-12-25T08:50:52.224Z,77.27
2022-12-25T08:53:39.291Z,76.72
2022-12-25T08:56:26.442Z,76.09
2022-12-25T08:59:13.138Z,75.78
2022-12-25T09:02:00.329Z,75.22
2022-12-25T09:04:47.741Z,74.59
2022-12-25T09:07:34.503Z,74.64
2022-12-25T09:10:21.758Z,73.21
2022-12-25T09:13:08.527Z,72.58
2022-12-25T09:15:55.208Z,71.16
2022-12-25T09:18:42.272Z,71.11
2022-12-25T09:21:28.940Z,69.97
2022-12-25T09:24:15.605Z,68.65
2022-12-25T09:27:02.588Z,67.49
2022-12-25T09:29:50.400Z,67.32
2022-12-25T09:32:37.025Z,66.42
2022-12-25T09:35:23.948Z,62.52
2022-12-25T09:38:10.666Z,64.89
2022-12-25T09:41:25.783Z,63.35
2022-12-25T09:44:25.579Z,63.72
2022-12-25T09:47:18.517Z,63.50
2022-12-25T09:50:15.795Z,64.25
2022-12-25T09:53:39.673Z,64.38
2022-12-25T09:56:26.478Z,65.12
2022-12-25T09:59:23.608Z,62.80
2022-12-25T10:02:42.579Z,62.81
2022-12-25T10:06:02.315Z,62.20
2022-12-25T10:09:02.462Z,61.75
2022-12-25T10:12:10.610Z,61.68
2022-12-25T10:15:06.551Z,60.73
2022-12-25T10:18:44.748Z,60.18
2022-12-25T10:21:31.991Z,60.53
2022-12-25T10:24:34.704Z,59.81
2022-12-25T10:27:35.135Z,59.42
2022-12-25T10:30:24.496Z,58.66
2022-12-25T10:33:17.179Z,57.20
2022-12-25T10:36:26.830Z,56.60
2022-12-25T10:39:46.105Z,57.34
2022-12-25T10:42:40.817Z,57.99
2022-12-25T10:45:27.842Z,55.92
2022-12-25T10:48:24.507Z,54.86
2022-12-25T10:51:11.188Z,55.23
2022-12-25T10:53:59.175Z,54.97
2022-12-25T10:56:58.592Z,55.89
2022-12-25T10:59:48.452Z,54.79
2022-12-25T11:02:41.008Z,54.79
2022-12-25T11:05:34.865Z,54.73
2022-12-25T11:08:24.796Z,53.78
2022-12-25T11:11:19.748Z,54.54
2022-12-25T11:14:06.686Z,52.60
2022-12-25T11:16:54.221Z,54.33
2022-12-25T11:19:52.577Z,52.52
2022-12-25T11:22:45.359Z,53.66
2022-12-25T11:25:32.274Z,53.20
2022-12-25T11:28:18.946Z,54.01
2022-12-25T11:31:09.722Z,51.19
2022-12-25T11:34:24.721Z,53.02
2022-12-25T11:37:18.539Z,53.90
2022-12-25T11:40:06.814Z,53.81
2022-12-25T11:43:07.543Z,54.02
2022-12-25T11:46:27.446Z,54.34
2022-12-25T11:49:19.888Z,53.84
2022-12-25T11:52:08.121Z,53.25
2022-12-25T11:55:17.375Z,53.61
2022-12-25T11:58:15.819Z,53.26
2022-12-25T12:01:12.295Z,53.62
2022-12-25T12:04:07.194Z,53.03
2022-12-25T12:07:01.036Z,53.22
2022-12-25T12:10:04.543Z,52.79
2022-12-25T12:13:06.795Z,53.19
2022-12-25T12:15:53.480Z,53.52
2022-12-25T12:18:48.128Z,52.68
2022-12-25T12:21:36.941Z,53.09
2022-12-25T12:24:46.643Z,52.75
2022-12-25T12:27:37.595Z,52.36
2022-12-25T12:30:31.692Z,50.80
2022-12-25T12:33:21.004Z,52.40
2022-12-25T12:36:13.326Z,51.37
2022-12-25T12:39:01.687Z,52.33
2022-12-25T12:41:49.723Z,53.12
2022-12-25T12:44:36.809Z,53.27
2022-12-25T12:47:44.631Z,52.78
2022-12-25T12:50:40.908Z,52.90
2022-12-25T12:53:32.497Z,52.41
2022-12-25T12:56:20.445Z,52.86
2022-12-25T12:59:09.996Z,53.61
2022-12-25T13:02:13.610Z,52.64
2022-12-25T13:05:38.819Z,53.26
2022-12-25T13:08:53.368Z,53.94
2022-12-25T13:11:43.272Z,53.99
2022-12-25T13:14:30.579Z,53.89
2022-12-25T13:17:24.834Z,54.25
2022-12-25T13:20:28.929Z,54.26
2022-12-25T13:23:28.357Z,54.67
2022-12-25T13:26:17.898Z,55.15
2022-12-25T13:29:11.056Z,55.15
2022-12-25T13:32:01.030Z,55.48
2022-12-25T13:34:49.855Z,55.94
2022-12-25T13:37:37.668Z,56.52
2022-12-25T13:40:27.370Z,56.66
2022-12-25T13:43:14.590Z,57.13
2022-12-25T13:46:01.889Z,57.42
2022-12-25T13:48:58.691Z,57.73
2022-12-25T13:51:46.700Z,57.73
2022-12-25T13:54:34.119Z,58.10
2022-12-25T13:57:25.228Z,58.27
2022-12-25T14:00:25.880Z,58.32
2022-12-25T14:03:24.663Z,59.03
2022-12-25T14:06:26.508Z,58.97
2022-12-25T14:09:13.702Z,59.27
2022-12-25T14:12:00.579Z,59.49
2022-12-25T14:14:48.553Z,59.60
2022-12-25T14:17:35.554Z,59.93
2022-12-25T14:20:54.884Z,59.99
2022-12-25T14:23:50.335Z,60.21
2022-12-25T14:26:37.279Z,60.36
2022-12-25T14:29:28.325Z,60.39
2022-12-25T14:32:21.385Z,60.67
2022-12-25T14:35:11.159Z,60.79
2022-12-25T14:38:00.334Z,60.97
2022-12-25T14:40:47.573Z,61.15
2022-12-25T14:43:36.421Z,61.49
2022-12-25T14:46:25.821Z,61.51
2022-12-25T14:49:25.359Z,61.65
2022-12-25T14:52:25.016Z,61.59
2022-12-25T14:55:21.687Z,61.83
2022-12-25T14:58:20.811Z,62.09
2022-12-25T15:01:07.737Z,62.23
2022-12-25T15:04:06.075Z,62.35
2022-12-25T15:07:09.706Z,62.47
2022-12-25T15:10:27.215Z,62.63
2022-12-25T15:13:05.328Z,62.51
2022-12-25T15:16:16.120Z,62.45
2022-12-25T15:19:03.010Z,62.71
2022-12-25T15:21:50.353Z,62.85
2022-12-25T15:24:36.821Z,62.81
2022-12-25T15:27:24.602Z,62.90
2022-12-25T15:30:12.558Z,63.03
2022-12-25T15:32:59.555Z,63.34
2022-12-25T15:35:46.248Z,63.22
2022-12-25T15:38:36.741Z,63.43
2022-12-25T15:41:49.464Z,63.48
2022-12-25T15:44:36.866Z,63.71
2022-12-25T15:47:23.459Z,64.15
2022-12-25T15:50:10.270Z,64.18
2022-12-25T15:52:57.294Z,64.22
2022-12-25T15:55:44.237Z,64.26
2022-12-25T15:58:30.734Z,64.56
2022-12-25T16:01:19.414Z,64.72
2022-12-25T16:04:06.535Z,64.92
2022-12-25T16:06:54.462Z,65.01
2022-12-25T16:09:41.544Z,65.22
2022-12-25T16:12:28.454Z,65.19
2022-12-25T16:15:15.803Z,65.17
2022-12-25T16:18:02.969Z,65.22
2022-12-25T16:20:51.938Z,65.44
2022-12-25T16:23:39.068Z,65.59
2022-12-25T16:26:26.147Z,65.75
2022-12-25T16:29:12.969Z,65.87
2022-12-25T16:31:59.621Z,65.66
2022-12-25T16:34:48.775Z,65.98
2022-12-25T16:37:35.833Z,66.09
2022-12-25T16:40:22.595Z,66.29
2022-12-25T16:43:09.689Z,66.58
2022-12-25T16:45:57.554Z,66.73
2022-12-25T16:48:45.377Z,66.59
2022-12-25T16:51:32.338Z,66.82
2022-12-25T16:54:19.318Z,66.94
2022-12-25T16:57:06.112Z,67.07
2022-12-25T16:59:52.985Z,67.09
2022-12-25T17:02:40.964Z,67.14
2022-12-25T17:05:29.305Z,67.13
2022-12-25T17:08:16.255Z,66.97
2022-12-25T17:11:05.133Z,66.86
2022-12-25T17:13:52.051Z,67.00
2022-12-25T17:16:40.549Z,67.10
2022-12-25T17:19:27.590Z,66.91
2022-12-25T17:22:14.399Z,67.00
2022-12-25T17:25:01.415Z,67.00
2022-12-25T17:27:50.701Z,67.05
2022-12-25T17:30:37.529Z,67.07
2022-12-25T17:33:24.152Z,67.00
2022-12-25T17:36:13.671Z,67.22
2022-12-25T17:39:02.185Z,67.26
2022-12-25T17:41:52.363Z,67.43
2022-12-25T17:44:39.012Z,67.43
2022-12-25T17:47:26.458Z,67.68
2022-12-25T17:50:13.399Z,67.71
2022-12-25T17:53:02.680Z,67.77
2022-12-25T17:55:49.477Z,67.86
2022-12-25T17:58:37.758Z,67.78
2022-12-25T18:01:26.313Z,68.01
2022-12-25T18:04:13.474Z,68.09
2022-12-25T18:06:59.996Z,68.07
2022-12-25T18:09:46.873Z,68.12
2022-12-25T18:12:33.596Z,68.19
2022-12-25T18:15:20.353Z,68.11
2022-12-25T18:18:08.325Z,68.22
2022-12-25T18:20:55.095Z,68.15
2022-12-25T18:23:42.136Z,68.17
2022-12-25T18:26:29.050Z,68.27
2022-12-25T18:29:15.657Z,68.40
2022-12-25T18:32:02.739Z,68.54
2022-12-25T18:34:53.352Z,68.70
2022-12-25T18:37:40.489Z,68.77
2022-12-25T18:40:27.277Z,68.80
2022-12-25T18:43:15.441Z,68.78
2022-12-25T18:46:04.456Z,68.79
2022-12-25T18:48:52.239Z,68.81
2022-12-25T18:51:38.857Z,68.92
2022-12-25T18:54:25.809Z,68.79
2022-12-25T18:57:12.573Z,68.94
2022-12-25T19:00:00.290Z,69.09
2022-12-25T19:02:47.211Z,69.31
2022-12-25T19:05:34.560Z,69.54
2022-12-25T19:08:21.252Z,69.53
2022-12-25T19:11:08.452Z,69.61
2022-12-25T19:13:56.757Z,69.67
2022-12-25T19:16:44.612Z,69.54
2022-12-25T19:19:31.761Z,69.75
2022-12-25T19:22:18.597Z,69.82
2022-12-25T19:25:06.092Z,69.80
2022-12-25T19:27:52.938Z,69.83
2022-12-25T19:30:40.020Z,69.71
2022-12-25T19:33:27.095Z,69.58
2022-12-25T19:36:16.156Z,69.72
2022-12-25T19:39:04.625Z,69.84
2022-12-25T19:41:51.154Z,69.91
2022-12-25T19:44:38.453Z,70.00
2022-12-25T19:47:25.536Z,70.05
2022-12-25T19:50:12.333Z,70.20
2022-12-25T19:52:59.432Z,70.14
2022-12-25T19:55:46.327Z,70.24
2022-12-25T19:58:34.156Z,70.13
2022-12-25T20:01:25.615Z,70.33
2022-12-25T20:04:12.728Z,70.38
2022-12-25T20:06:59.747Z,70.48
2022-12-25T20:09:46.712Z,70.75
2022-12-25T20:12:33.622Z,70.75
2022-12-25T20:15:21.646Z,70.75
2022-12-25T20:18:08.258Z,70.86
2022-12-25T20:21:07.553Z,71.01
2022-12-25T20:23:54.844Z,71.05
2022-12-25T20:26:41.603Z,71.14
2022-12-25T20:29:28.309Z,71.30
2022-12-25T20:32:15.259Z,71.14
2022-12-25T20:35:02.220Z,71.28
2022-12-25T20:37:49.121Z,71.36
2022-12-25T20:41:00.115Z,71.81
2022-12-25T20:43:45.502Z,71.32
2022-12-25T20:46:32.937Z,71.32
2022-12-25T20:49:20.072Z,71.32
2022-12-25T20:52:06.894Z,71.12
2022-12-25T20:54:53.499Z,70.89
2022-12-25T20:57:40.523Z,70.89
2022-12-25T21:00:27.464Z,71.16
2022-12-25T21:03:14.573Z,70.97
2022-12-25T21:06:02.495Z,70.89
2022-12-25T21:08:49.526Z,70.92
2022-12-25T21:11:36.544Z,70.80
2022-12-25T21:14:23.819Z,70.49
2022-12-25T21:17:10.514Z,70.59
2022-12-25T21:19:57.344Z,71.03
2022-12-25T21:22:44.097Z,71.32
2022-12-25T21:25:30.769Z,71.23
2022-12-25T21:28:17.412Z,71.28
2022-12-25T21:31:05.864Z,71.25
2022-12-25T21:33:55.472Z,70.94
2022-12-25T21:36:42.154Z,70.91
2022-12-25T21:39:28.813Z,71.20
2022-12-25T21:42:15.634Z,71.25
2022-12-25T21:45:02.281Z,71.29
2022-12-25T21:48:01.305Z,71.39
2022-12-25T21:51:08.935Z,71.33
2022-12-25T21:53:55.816Z,71.29
2022-12-25T21:56:45.870Z,71.07
2022-12-25T21:59:32.944Z,70.96
2022-12-25T22:02:20.172Z,71.04
2022-12-25T22:05:07.312Z,70.95
2022-12-25T22:07:54.124Z,71.12
2022-12-25T22:10:40.943Z,71.32
2022-12-25T22:13:46.116Z,71.12
2022-12-25T22:16:51.588Z,71.15
2022-12-25T22:19:56.641Z,71.22
2022-12-25T22:22:44.086Z,71.49
2022-12-25T22:25:31.039Z,71.81
2022-12-25T22:28:18.083Z,71.38
2022-12-25T22:31:06.155Z,71.65
2022-12-25T22:33:54.554Z,71.81
2022-12-25T22:36:42.047Z,71.97
2022-12-25T22:39:30.509Z,71.96
2022-12-25T22:42:18.044Z,72.20
2022-12-25T22:45:05.963Z,72.15
2022-12-25T22:47:52.991Z,72.12
2022-12-25T22:50:39.933Z,71.98
2022-12-25T22:53:26.673Z,72.24
2022-12-25T22:56:13.871Z,72.33
2022-12-25T22:59:01.064Z,72.47
2022-12-25T23:01:48.955Z,72.32
2022-12-25T23:04:36.785Z,72.12
2022-12-25T23:07:23.550Z,72.28
2022-12-25T23:10:12.296Z,72.26
2022-12-25T23:13:17.717Z,72.30
2022-12-25T23:16:05.776Z,72.60
2022-12-25T23:19:11.270Z,72.70
2022-12-25T23:22:16.739Z,72.70
2022-12-25T23:25:28.331Z,72.62
2022-12-25T23:28:35.808Z,72.50
2022-12-25T23:31:29.085Z,72.65
2022-12-25T23:34:16.744Z,72.40
2022-12-25T23:37:04.056Z,72.42
2022-12-25T23:39:50.709Z,72.60
2022-12-25T23:42:37.801Z,72.71
2022-12-25T23:45:24.536Z,72.73
2022-12-25T23:48:11.209Z,72.40
2022-12-25T23:51:02.606Z,72.35
2022-12-25T23:53:49.389Z,72.34
2022-12-25T23:56:36.896Z,72.43
2022-12-25T23:59:25.959Z,72.61
